Alta, West Virginia
Current Conditions -  °F | °C
As of 2:55 AM on Saturday 20 Dec 2014 (Local Time) from KLWB Reporting Station
Clear Clear  
Wind Chill: 15°   Ceiling: Unl
Heat Index: 22°   Visibility: 10mi
Dew Point: 20°   Wind: 6mph
Humidity: 89%   Direction: 20°NNE
Pressure: 30.16"   Gusts: NA
Location:  37.8345°N, 80.5736°W
Report Text: KLWB 200755Z AUTO 02005KT 10SM CLR M05/M07 A3016 RMK AO2 T10531068
Loading
Personal Weather Stations






























Interactive Weather Map New forecast layout! Learn more

10-Day Weather Forecast

Advertisements
Track Severe Weather on mobile